createdAt,value
2022-12-15T01:16:05.193Z,12.09
2022-12-15T01:18:32.397Z,12.05
2022-12-15T01:20:59.983Z,11.92
2022-12-15T01:23:27.171Z,11.69
2022-12-15T01:25:56.552Z,11.39
2022-12-15T01:28:25.864Z,11.78
2022-12-15T01:30:52.915Z,11.84
2022-12-15T01:33:21.574Z,11.73
2022-12-15T01:35:50.502Z,11.83
2022-12-15T01:38:17.500Z,11.43
2022-12-15T01:40:44.463Z,11.09
2022-12-15T01:43:12.936Z,10.96
2022-12-15T01:45:39.759Z,10.91
2022-12-15T01:48:08.285Z,10.95
2022-12-15T01:50:35.969Z,11.11
2022-12-15T01:53:03.015Z,11.03
2022-12-15T01:55:31.776Z,10.23
2022-12-15T01:58:02.848Z,9.82
2022-12-15T02:00:31.541Z,10.00
2022-12-15T02:03:01.602Z,10.74
2022-12-15T02:05:29.820Z,10.42
2022-12-15T02:07:57.475Z,10.13
2022-12-15T02:10:24.880Z,10.52
2022-12-15T02:12:51.885Z,10.79
2022-12-15T02:15:19.676Z,10.80
2022-12-15T02:17:46.865Z,10.87
2022-12-15T02:20:15.949Z,10.83
2022-12-15T02:22:42.988Z,11.13
2022-12-15T02:25:09.959Z,9.96
2022-12-15T02:27:37.232Z,8.93
2022-12-15T02:30:08.659Z,9.32
2022-12-15T02:32:36.704Z,9.73
2022-12-15T02:35:03.656Z,9.91
2022-12-15T02:37:31.215Z,9.87
2022-12-15T02:39:57.793Z,9.30
2022-12-15T02:42:24.920Z,10.19
2022-12-15T02:44:52.087Z,10.24
2022-12-15T02:47:21.156Z,9.96
2022-12-15T02:49:51.973Z,10.46
2022-12-15T02:52:21.025Z,10.67
2022-12-15T02:54:50.494Z,10.53
2022-12-15T02:57:17.620Z,10.20
2022-12-15T02:59:47.549Z,9.96
2022-12-15T03:02:15.843Z,9.66
2022-12-15T03:04:44.723Z,9.70
2022-12-15T03:07:11.594Z,8.53
2022-12-15T03:09:39.303Z,9.05
2022-12-15T03:12:08.544Z,8.74
2022-12-15T03:14:37.563Z,8.82
2022-12-15T03:17:04.283Z,8.86
2022-12-15T03:19:34.534Z,9.37
2022-12-15T03:22:08.728Z,9.21
2022-12-15T03:24:36.588Z,9.08
2022-12-15T03:27:03.495Z,8.77
2022-12-15T03:29:30.351Z,8.38
2022-12-15T03:31:57.265Z,8.04
2022-12-15T03:34:24.648Z,8.52
2022-12-15T03:36:51.518Z,8.33
2022-12-15T03:39:18.432Z,8.56
2022-12-15T03:41:47.180Z,8.63
2022-12-15T03:44:15.094Z,9.26
2022-12-15T03:46:41.682Z,9.49
2022-12-15T03:49:09.504Z,10.04
2022-12-15T03:51:36.046Z,9.74
2022-12-15T03:54:02.983Z,8.92
2022-12-15T03:56:29.905Z,7.98
2022-12-15T03:58:59.733Z,7.74
2022-12-15T04:01:34.821Z,8.31
2022-12-15T04:04:02.607Z,8.77
2022-12-15T04:06:31.533Z,9.66
2022-12-15T04:09:05.074Z,9.58
2022-12-15T04:11:33.219Z,9.09
2022-12-15T04:14:23.663Z,9.08
2022-12-15T04:17:10.743Z,9.67
2022-12-15T04:19:57.800Z,9.62
2022-12-15T04:22:25.408Z,9.77
2022-12-15T04:24:52.970Z,8.70
2022-12-15T04:27:21.551Z,8.83
2022-12-15T04:29:50.347Z,8.51
2022-12-15T04:32:17.893Z,9.08
2022-12-15T04:34:46.481Z,9.53
2022-12-15T04:37:26.130Z,9.06
2022-12-15T04:43:33.500Z,9.02
2022-12-15T05:20:33.218Z,8.42
2022-12-15T05:23:00.139Z,8.15
2022-12-15T05:25:27.188Z,8.11
2022-12-15T05:27:55.824Z,7.79
2022-12-15T05:30:23.126Z,7.87
2022-12-15T05:32:50.044Z,7.84
2022-12-15T05:35:23.198Z,7.54
2022-12-15T05:37:50.446Z,7.42
2022-12-15T05:40:17.380Z,7.07
2022-12-15T05:42:49.980Z,7.02
2022-12-15T05:45:22.307Z,7.53
2022-12-15T05:47:51.204Z,7.98
2022-12-15T05:50:19.397Z,7.86
2022-12-15T05:52:49.497Z,7.42
2022-12-15T05:55:20.020Z,7.39
2022-12-15T06:00:37.972Z,7.72
2022-12-15T06:03:09.546Z,7.45
2022-12-15T06:42:05.827Z,7.81
2022-12-15T06:44:36.980Z,8.13
2022-12-15T06:50:11.949Z,8.57
2022-12-15T06:52:39.622Z,8.53
2022-12-15T06:55:08.230Z,8.11
2022-12-15T07:00:26.265Z,8.32
2022-12-15T07:02:53.233Z,8.11
2022-12-15T07:05:20.651Z,8.74
2022-12-15T07:10:40.252Z,9.41
2022-12-15T07:15:58.635Z,9.49
2022-12-15T07:18:27.951Z,8.53
2022-12-15T07:20:56.355Z,7.90
2022-12-15T07:23:53.506Z,7.75
2022-12-15T07:26:20.365Z,7.41
2022-12-15T07:28:49.321Z,7.34
2022-12-15T07:31:29.457Z,6.90
2022-12-15T07:36:41.658Z,6.58
2022-12-15T07:39:20.496Z,6.47
2022-12-15T07:42:01.125Z,6.68
2022-12-15T07:44:35.170Z,6.47
2022-12-15T07:47:15.369Z,6.26
2022-12-15T07:52:28.012Z,6.25
2022-12-15T08:28:46.282Z,10.69
2022-12-15T08:31:17.424Z,10.81
2022-12-15T08:33:46.253Z,10.54
2022-12-15T08:36:17.341Z,9.71
2022-12-15T08:38:45.276Z,9.43
2022-12-15T08:41:13.606Z,8.44
2022-12-15T08:43:47.474Z,8.34
2022-12-15T08:46:19.534Z,8.34
2022-12-15T08:48:46.442Z,7.93
2022-12-15T08:51:22.224Z,7.70
2022-12-15T08:53:50.227Z,7.80
2022-12-15T09:02:16.815Z,8.03
2022-12-15T09:04:45.439Z,7.67
2022-12-15T09:07:12.741Z,7.92
2022-12-15T09:09:44.350Z,9.19
2022-12-15T09:12:20.398Z,9.83
2022-12-15T09:15:01.586Z,9.75
2022-12-15T09:17:33.491Z,9.98
2022-12-15T09:20:03.490Z,9.76
2022-12-15T09:22:34.696Z,10.37
2022-12-15T09:25:09.231Z,10.44
2022-12-15T09:33:12.831Z,11.13
2022-12-15T09:35:58.093Z,10.87
2022-12-15T09:38:29.496Z,11.25
2022-12-15T09:40:57.077Z,11.29
2022-12-15T09:43:35.750Z,11.62
2022-12-15T09:46:08.438Z,11.08
2022-12-15T09:48:36.821Z,10.72
2022-12-15T09:51:05.512Z,10.51
2022-12-15T09:53:54.624Z,10.40
2022-12-15T09:56:26.407Z,11.36
2022-12-15T09:58:54.113Z,11.11
2022-12-15T10:01:24.809Z,11.75
2022-12-15T10:04:04.241Z,12.13
2022-12-15T10:06:35.953Z,12.27
2022-12-15T10:09:04.867Z,12.52
2022-12-15T10:11:32.092Z,12.31
2022-12-15T10:14:02.558Z,12.50
2022-12-15T10:19:35.622Z,12.64
2022-12-15T10:22:08.007Z,12.68
2022-12-15T10:27:24.464Z,12.40
2022-12-15T10:29:56.052Z,11.54
2022-12-15T10:32:40.993Z,11.15
2022-12-15T10:35:16.338Z,10.18
2022-12-15T10:40:25.115Z,10.48
2022-12-15T10:42:55.024Z,10.46
2022-12-15T10:45:24.622Z,11.32
2022-12-15T10:47:59.734Z,11.65
2022-12-15T10:50:40.641Z,12.20
2022-12-15T10:53:13.179Z,12.34
2022-12-15T10:55:43.640Z,12.65
2022-12-15T10:58:30.512Z,12.79
2022-12-15T11:01:08.702Z,12.61
2022-12-15T11:03:38.722Z,12.71
2022-12-15T11:06:13.535Z,12.42
2022-12-15T11:08:42.685Z,12.49
2022-12-15T11:11:14.623Z,12.69
2022-12-15T11:13:44.663Z,12.41
2022-12-15T11:16:18.442Z,12.66
2022-12-15T11:18:50.319Z,12.82
2022-12-15T11:21:19.279Z,12.94
2022-12-15T11:57:27.961Z,12.93
2022-12-15T11:59:57.509Z,12.95
2022-12-15T12:02:34.633Z,13.23
2022-12-15T12:55:43.044Z,12.95
2022-12-15T12:58:12.009Z,12.72
2022-12-15T13:00:39.484Z,12.62
2022-12-15T13:03:13.926Z,12.89
2022-12-15T13:05:42.437Z,12.77
2022-12-15T13:08:10.165Z,12.32
2022-12-15T13:10:39.568Z,12.56
2022-12-15T13:13:08.873Z,12.73
2022-12-15T13:15:39.534Z,12.71
2022-12-15T13:18:06.285Z,11.21
2022-12-15T13:20:38.473Z,10.57
2022-12-15T13:23:05.684Z,10.45
2022-12-15T13:25:33.323Z,9.90
2022-12-15T13:28:00.501Z,11.02
2022-12-15T13:30:27.407Z,11.51
2022-12-15T13:32:55.285Z,11.27
2022-12-15T13:35:23.218Z,12.04
2022-12-15T13:37:55.062Z,12.38
2022-12-15T13:40:23.963Z,12.50
2022-12-15T13:45:55.510Z,12.27
2022-12-15T13:48:23.124Z,12.02
2022-12-15T13:50:51.648Z,11.99
2022-12-15T13:53:21.577Z,11.53
2022-12-15T13:55:51.040Z,11.10
2022-12-15T14:01:05.224Z,12.08
2022-12-15T14:03:35.914Z,10.68
2022-12-15T14:06:03.483Z,9.99
2022-12-15T14:08:37.853Z,10.08
2022-12-15T14:11:16.818Z,9.83
2022-12-15T14:14:01.300Z,10.90
2022-12-15T14:16:37.813Z,10.69
2022-12-15T14:19:06.753Z,11.32
2022-12-15T14:21:37.002Z,11.66
2022-12-15T14:24:38.072Z,11.60
2022-12-15T14:27:07.574Z,11.12
2022-12-15T14:40:36.948Z,11.48
2022-12-15T14:43:06.620Z,11.71
2022-12-15T14:51:13.687Z,11.42
2022-12-15T14:53:43.270Z,11.59
2022-12-15T15:04:55.704Z,10.21
2022-12-15T15:07:32.480Z,10.10
2022-12-15T15:10:10.248Z,9.70
2022-12-15T15:12:39.850Z,9.71
2022-12-15T15:15:08.002Z,9.96
2022-12-15T15:17:37.366Z,9.89
2022-12-15T15:20:12.499Z,9.75
2022-12-15T15:22:43.698Z,10.40
2022-12-15T15:25:22.922Z,10.42
2022-12-15T15:27:51.017Z,10.59
2022-12-15T15:30:18.116Z,9.69
2022-12-15T15:32:46.652Z,10.14
2022-12-15T15:38:10.906Z,9.73
2022-12-15T15:40:39.996Z,9.77
2022-12-15T15:43:20.361Z,10.21
2022-12-15T15:45:47.209Z,10.46
2022-12-15T15:48:16.217Z,10.33
2022-12-15T15:50:44.254Z,9.62
2022-12-15T15:53:12.786Z,9.69
2022-12-15T15:55:40.149Z,10.05
2022-12-15T15:58:12.773Z,10.51
2022-12-15T16:01:27.101Z,10.31
2022-12-15T16:03:28.071Z,9.52
2022-12-15T16:05:56.263Z,10.33
2022-12-15T16:08:33.217Z,10.67
2022-12-15T16:11:00.834Z,10.62
2022-12-15T16:13:28.279Z,11.01
2022-12-15T16:16:01.437Z,10.54
2022-12-15T16:18:36.351Z,10.44
2022-12-15T16:21:05.753Z,10.34
2022-12-15T16:23:42.830Z,10.62
2022-12-15T16:29:24.063Z,10.05
2022-12-15T16:31:57.706Z,10.66
2022-12-15T16:34:25.004Z,11.22
2022-12-15T16:36:55.242Z,11.31
2022-12-15T16:39:23.335Z,11.55
2022-12-15T16:41:54.324Z,11.60
2022-12-15T16:47:23.180Z,11.67
2022-12-15T16:49:59.742Z,11.60
2022-12-15T16:52:36.376Z,11.64
2022-12-15T16:55:07.782Z,11.43
2022-12-15T16:57:37.399Z,11.55
2022-12-15T17:00:08.861Z,11.56
2022-12-15T17:02:44.612Z,11.44
2022-12-15T17:08:10.020Z,11.74
2022-12-15T17:10:41.009Z,11.79
2022-12-15T17:13:19.161Z,11.76
2022-12-15T17:15:46.376Z,11.60
2022-12-15T17:18:13.638Z,10.77
2022-12-15T17:20:46.968Z,9.63
2022-12-15T17:23:16.188Z,8.52
2022-12-15T17:26:19.571Z,7.78
2022-12-15T17:28:36.060Z,7.18
2022-12-15T17:34:21.007Z,8.24
2022-12-15T17:36:48.926Z,9.12
2022-12-15T17:39:26.696Z,9.47
2022-12-15T17:42:04.489Z,9.85
2022-12-15T17:44:37.262Z,9.84
2022-12-15T17:47:11.673Z,10.30
2022-12-15T17:49:44.989Z,10.41
2022-12-15T17:52:14.598Z,10.79
2022-12-15T17:54:43.347Z,10.75
2022-12-15T17:57:16.069Z,10.86
2022-12-15T17:59:43.381Z,10.49
2022-12-15T18:04:59.324Z,10.89
2022-12-15T18:22:49.840Z,10.86
2022-12-15T18:25:16.338Z,9.21
2022-12-15T18:40:49.248Z,9.02
2022-12-15T18:43:18.215Z,8.09
2022-12-15T18:45:50.754Z,7.72
2022-12-15T18:48:31.330Z,8.21
2022-12-15T18:50:59.984Z,9.46
2022-12-15T18:53:28.467Z,8.75
2022-12-15T18:56:00.755Z,8.88
2022-12-15T18:58:39.445Z,9.37
2022-12-15T19:01:06.531Z,9.70
2022-12-15T19:06:14.631Z,10.04
2022-12-15T19:08:42.156Z,10.10
2022-12-15T19:11:11.900Z,10.53
2022-12-15T19:13:46.066Z,10.76
2022-12-15T19:16:12.799Z,10.80
2022-12-15T19:18:43.809Z,10.29
2022-12-15T19:21:10.683Z,10.51
2022-12-15T19:23:39.694Z,9.48
2022-12-15T19:26:09.250Z,10.20
2022-12-15T19:31:42.136Z,10.74
2022-12-15T19:34:11.473Z,10.69
2022-12-15T19:36:42.974Z,10.70
2022-12-15T19:39:16.641Z,10.45
2022-12-15T19:41:46.188Z,9.44
2022-12-15T19:44:16.629Z,8.28
2022-12-15T19:46:43.143Z,8.36
2022-12-15T20:08:05.933Z,10.44
2022-12-15T20:10:36.037Z,10.59
2022-12-15T20:13:03.585Z,10.40
2022-12-15T20:15:30.358Z,10.37
2022-12-15T20:27:33.940Z,10.40
2022-12-15T20:30:03.215Z,10.36
2022-12-15T20:32:35.101Z,10.22
2022-12-15T20:35:07.331Z,10.25
2022-12-15T20:37:38.392Z,10.44
2022-12-15T20:40:09.201Z,10.51
2022-12-15T20:42:38.689Z,10.46
2022-12-15T20:45:07.723Z,10.60
2022-12-15T20:47:35.106Z,10.48
2022-12-15T20:50:02.392Z,9.94
2022-12-15T20:52:29.526Z,9.98
2022-12-15T20:54:56.585Z,9.79
2022-12-15T20:57:29.755Z,9.08
2022-12-15T21:00:00.475Z,9.08
2022-12-15T21:02:30.631Z,9.50
2022-12-15T21:05:00.231Z,9.73
2022-12-15T22:12:21.480Z,8.80
2022-12-15T22:14:47.984Z,7.93
2022-12-15T23:44:14.477Z,7.59
